sensor_id;sensor_type;location;lat;lon;timestamp;temperature;humidity
7648;DHT22;3866;48.020;11.720;2024-01-11T00:02:10;-5.60;99.90
7648;DHT22;3866;48.020;11.720;2024-01-11T00:04:37;-5.70;99.90
7648;DHT22;3866;48.020;11.720;2024-01-11T00:07:05;-5.70;99.90
7648;DHT22;3866;48.020;11.720;2024-01-11T00:09:38;-5.60;99.90
7648;DHT22;3866;48.020;11.720;2024-01-11T00:12:06;-5.60;99.90
7648;DHT22;3866;48.020;11.720;2024-01-11T00:14:35;-5.90;99.90
7648;DHT22;3866;48.020;11.720;2024-01-11T00:17:03;-5.70;99.90
7648;DHT22;3866;48.020;11.720;2024-01-11T00:19:34;-5.60;99.90
7648;DHT22;3866;48.020;11.720;2024-01-11T00:22:00;-5.70;99.90
7648;DHT22;3866;48.020;11.720;2024-01-11T00:24:30;-5.70;99.90
7648;DHT22;3866;48.020;11.720;2024-01-11T00:26:57;-5.70;99.90
7648;DHT22;3866;48.020;11.720;2024-01-11T00:29:24;-5.70;99.90
7648;DHT22;3866;48.020;11.720;2024-01-11T00:31:52;-6.10;99.90
7648;DHT22;3866;48.020;11.720;2024-01-11T00:34:19;-5.90;99.90
7648;DHT22;3866;48.020;11.720;2024-01-11T00:36:47;-5.80;99.90
7648;DHT22;3866;48.020;11.720;2024-01-11T00:39:14;-5.80;99.90
7648;DHT22;3866;48.020;11.720;2024-01-11T00:41:40;-5.70;99.90
7648;DHT22;3866;48.020;11.720;2024-01-11T00:44:07;-5.90;99.90
7648;DHT22;3866;48.020;11.720;2024-01-11T00:46:35;-5.90;99.90
7648;DHT22;3866;48.020;11.720;2024-01-11T00:49:05;-5.60;99.90
7648;DHT22;3866;48.020;11.720;2024-01-11T00:51:33;-5.60;99.90
7648;DHT22;3866;48.020;11.720;2024-01-11T00:54:09;-5.60;99.90
7648;DHT22;3866;48.020;11.720;2024-01-11T00:56:36;-5.60;99.90
7648;DHT22;3866;48.020;11.720;2024-01-11T00:59:03;-5.60;99.90
7648;DHT22;3866;48.020;11.720;2024-01-11T01:01:30;-5.60;99.90
7648;DHT22;3866;48.020;11.720;2024-01-11T01:03:58;-5.80;99.90
7648;DHT22;3866;48.020;11.720;2024-01-11T01:06:28;-5.70;99.90
7648;DHT22;3866;48.020;11.720;2024-01-11T01:08:55;-5.40;99.90
7648;DHT22;3866;48.020;11.720;2024-01-11T01:11:23;-5.40;99.90
7648;DHT22;3866;48.020;11.720;2024-01-11T01:13:50;-5.40;99.90
7648;DHT22;3866;48.020;11.720;2024-01-11T01:16:21;-5.50;99.90
7648;DHT22;3866;48.020;11.720;2024-01-11T01:18:48;-5.40;99.90
7648;DHT22;3866;48.020;11.720;2024-01-11T01:21:19;-5.50;99.90
7648;DHT22;3866;48.020;11.720;2024-01-11T01:23:47;-5.60;99.90
7648;DHT22;3866;48.020;11.720;2024-01-11T01:26:14;-5.60;99.90
7648;DHT22;3866;48.020;11.720;2024-01-11T01:28:41;-5.60;99.90
7648;DHT22;3866;48.020;11.720;2024-01-11T01:31:09;-5.60;99.90
7648;DHT22;3866;48.020;11.720;2024-01-11T01:33:38;-5.70;99.90
7648;DHT22;3866;48.020;11.720;2024-01-11T01:36:08;-5.70;99.90
7648;DHT22;3866;48.020;11.720;2024-01-11T01:38:35;-5.70;99.90
7648;DHT22;3866;48.020;11.720;2024-01-11T01:41:06;-5.70;99.90
7648;DHT22;3866;48.020;11.720;2024-01-11T01:43:36;-5.60;99.90
7648;DHT22;3866;48.020;11.720;2024-01-11T01:46:05;-5.60;99.90
7648;DHT22;3866;48.020;11.720;2024-01-11T01:48:33;-5.60;99.90
7648;DHT22;3866;48.020;11.720;2024-01-11T01:51:00;-5.80;99.90
7648;DHT22;3866;48.020;11.720;2024-01-11T01:53:27;-5.70;99.90
7648;DHT22;3866;48.020;11.720;2024-01-11T01:55:55;-5.80;99.90
7648;DHT22;3866;48.020;11.720;2024-01-11T01:58:23;-5.90;99.90
7648;DHT22;3866;48.020;11.720;2024-01-11T02:00:51;-5.70;99.90
7648;DHT22;3866;48.020;11.720;2024-01-11T02:03:19;-5.70;99.90
7648;DHT22;3866;48.020;11.720;2024-01-11T02:05:47;-5.60;99.90
7648;DHT22;3866;48.020;11.720;2024-01-11T02:08:16;-5.70;99.90
7648;DHT22;3866;48.020;11.720;2024-01-11T02:10:43;-5.60;99.90
7648;DHT22;3866;48.020;11.720;2024-01-11T02:13:11;-5.60;99.90
7648;DHT22;3866;48.020;11.720;2024-01-11T02:15:39;-5.50;99.90
7648;DHT22;3866;48.020;11.720;2024-01-11T02:18:06;-5.50;99.90
7648;DHT22;3866;48.020;11.720;2024-01-11T02:20:33;-5.50;99.90
7648;DHT22;3866;48.020;11.720;2024-01-11T02:23:03;-5.60;99.90
7648;DHT22;3866;48.020;11.720;2024-01-11T02:25:33;-5.50;99.90
7648;DHT22;3866;48.020;11.720;2024-01-11T02:28:00;-5.70;99.90
7648;DHT22;3866;48.020;11.720;2024-01-11T02:30:27;-5.80;99.90
7648;DHT22;3866;48.020;11.720;2024-01-11T02:32:54;-5.60;99.90
7648;DHT22;3866;48.020;11.720;2024-01-11T02:35:21;-5.60;99.90
7648;DHT22;3866;48.020;11.720;2024-01-11T02:37:49;-5.50;99.90
7648;DHT22;3866;48.020;11.720;2024-01-11T02:40:19;-5.30;99.90
7648;DHT22;3866;48.020;11.720;2024-01-11T02:42:47;-5.40;99.90
7648;DHT22;3866;48.020;11.720;2024-01-11T02:45:14;-5.40;99.90
7648;DHT22;3866;48.020;11.720;2024-01-11T02:47:41;-5.60;99.90
7648;DHT22;3866;48.020;11.720;2024-01-11T02:50:08;-5.40;99.90
7648;DHT22;3866;48.020;11.720;2024-01-11T02:52:38;-5.40;99.90
7648;DHT22;3866;48.020;11.720;2024-01-11T02:55:06;-5.30;99.90
7648;DHT22;3866;48.020;11.720;2024-01-11T02:57:33;-5.50;99.90
7648;DHT22;3866;48.020;11.720;2024-01-11T03:00:01;-5.60;99.90
7648;DHT22;3866;48.020;11.720;2024-01-11T03:02:28;-5.70;99.90
7648;DHT22;3866;48.020;11.720;2024-01-11T03:04:55;-5.60;99.90
7648;DHT22;3866;48.020;11.720;2024-01-11T03:07:23;-5.40;99.90
7648;DHT22;3866;48.020;11.720;2024-01-11T03:09:50;-5.20;99.90
7648;DHT22;3866;48.020;11.720;2024-01-11T03:12:17;-5.20;99.90
7648;DHT22;3866;48.020;11.720;2024-01-11T03:14:44;-5.20;99.90
7648;DHT22;3866;48.020;11.720;2024-01-11T03:17:12;-5.30;99.90
7648;DHT22;3866;48.020;11.720;2024-01-11T03:19:39;-5.10;99.90
7648;DHT22;3866;48.020;11.720;2024-01-11T03:22:07;-5.30;99.90
7648;DHT22;3866;48.020;11.720;2024-01-11T03:24:37;-5.40;99.90
7648;DHT22;3866;48.020;11.720;2024-01-11T03:27:04;-5.50;99.90
7648;DHT22;3866;48.020;11.720;2024-01-11T03:29:32;-5.50;99.90
7648;DHT22;3866;48.020;11.720;2024-01-11T03:31:59;-5.20;99.90
7648;DHT22;3866;48.020;11.720;2024-01-11T03:34:29;-5.50;99.90
7648;DHT22;3866;48.020;11.720;2024-01-11T03:36:56;-5.40;99.90
7648;DHT22;3866;48.020;11.720;2024-01-11T03:39:24;-5.30;99.90
7648;DHT22;3866;48.020;11.720;2024-01-11T03:41:51;-5.50;99.90
7648;DHT22;3866;48.020;11.720;2024-01-11T03:44:19;-5.50;99.90
7648;DHT22;3866;48.020;11.720;2024-01-11T03:46:46;-5.80;99.90
7648;DHT22;3866;48.020;11.720;2024-01-11T03:49:14;-5.70;99.90
7648;DHT22;3866;48.020;11.720;2024-01-11T03:51:44;-5.70;99.90
7648;DHT22;3866;48.020;11.720;2024-01-11T03:54:11;-5.50;99.90
7648;DHT22;3866;48.020;11.720;2024-01-11T03:56:38;-5.50;99.90
7648;DHT22;3866;48.020;11.720;2024-01-11T03:59:05;-5.50;99.90
7648;DHT22;3866;48.020;11.720;2024-01-11T04:01:33;-5.50;99.90
7648;DHT22;3866;48.020;11.720;2024-01-11T04:04:00;-5.60;99.90
7648;DHT22;3866;48.020;11.720;2024-01-11T04:06:27;-5.50;99.90
7648;DHT22;3866;48.020;11.720;2024-01-11T04:08:56;-5.40;99.90
7648;DHT22;3866;48.020;11.720;2024-01-11T04:11:22;-5.50;99.90
7648;DHT22;3866;48.020;11.720;2024-01-11T04:13:49;-5.60;99.90
7648;DHT22;3866;48.020;11.720;2024-01-11T04:16:18;-5.50;99.90
7648;DHT22;3866;48.020;11.720;2024-01-11T04:18:45;-5.40;99.90
7648;DHT22;3866;48.020;11.720;2024-01-11T04:21:21;-5.60;99.90
7648;DHT22;3866;48.020;11.720;2024-01-11T04:23:49;-5.60;99.90
7648;DHT22;3866;48.020;11.720;2024-01-11T04:26:17;-5.50;99.90
7648;DHT22;3866;48.020;11.720;2024-01-11T04:28:45;-5.40;99.90
7648;DHT22;3866;48.020;11.720;2024-01-11T04:31:12;-5.60;99.90
7648;DHT22;3866;48.020;11.720;2024-01-11T04:33:40;-5.40;99.90
7648;DHT22;3866;48.020;11.720;2024-01-11T04:36:07;-5.50;99.90
7648;DHT22;3866;48.020;11.720;2024-01-11T04:38:35;-5.20;99.90
7648;DHT22;3866;48.020;11.720;2024-01-11T04:41:03;-5.40;99.90
7648;DHT22;3866;48.020;11.720;2024-01-11T04:43:36;-5.50;99.90
7648;DHT22;3866;48.020;11.720;2024-01-11T04:46:03;-5.50;99.90
7648;DHT22;3866;48.020;11.720;2024-01-11T04:48:30;-5.50;99.90
7648;DHT22;3866;48.020;11.720;2024-01-11T04:50:57;-5.40;99.90
7648;DHT22;3866;48.020;11.720;2024-01-11T04:53:24;-5.40;99.90
7648;DHT22;3866;48.020;11.720;2024-01-11T04:55:51;-5.40;99.90
7648;DHT22;3866;48.020;11.720;2024-01-11T04:58:19;-5.50;99.90
7648;DHT22;3866;48.020;11.720;2024-01-11T05:00:49;-5.30;99.90
7648;DHT22;3866;48.020;11.720;2024-01-11T05:03:16;-5.30;99.90
7648;DHT22;3866;48.020;11.720;2024-01-11T05:05:43;-5.20;99.90
7648;DHT22;3866;48.020;11.720;2024-01-11T05:08:11;-5.40;99.90
7648;DHT22;3866;48.020;11.720;2024-01-11T05:10:39;-5.40;99.90
7648;DHT22;3866;48.020;11.720;2024-01-11T05:13:06;-5.40;99.90
7648;DHT22;3866;48.020;11.720;2024-01-11T05:15:34;-5.30;99.90
7648;DHT22;3866;48.020;11.720;2024-01-11T05:18:03;-5.20;99.90
7648;DHT22;3866;48.020;11.720;2024-01-11T05:20:30;-5.20;99.90
7648;DHT22;3866;48.020;11.720;2024-01-11T05:22:58;-5.30;99.90
7648;DHT22;3866;48.020;11.720;2024-01-11T05:25:26;-5.10;99.90
7648;DHT22;3866;48.020;11.720;2024-01-11T05:27:53;-5.30;99.90
7648;DHT22;3866;48.020;11.720;2024-01-11T05:30:20;-5.50;99.90
7648;DHT22;3866;48.020;11.720;2024-01-11T05:32:47;-5.60;99.90
7648;DHT22;3866;48.020;11.720;2024-01-11T05:35:15;-5.60;99.90
7648;DHT22;3866;48.020;11.720;2024-01-11T05:37:42;-5.50;99.90
7648;DHT22;3866;48.020;11.720;2024-01-11T05:40:11;-5.70;99.90
7648;DHT22;3866;48.020;11.720;2024-01-11T05:42:38;-5.70;99.90
7648;DHT22;3866;48.020;11.720;2024-01-11T05:45:05;-5.60;99.90
7648;DHT22;3866;48.020;11.720;2024-01-11T05:47:32;-5.60;99.90
7648;DHT22;3866;48.020;11.720;2024-01-11T05:49:59;-5.40;99.90
7648;DHT22;3866;48.020;11.720;2024-01-11T05:52:27;-5.60;99.90
7648;DHT22;3866;48.020;11.720;2024-01-11T05:54:56;-5.70;99.90
7648;DHT22;3866;48.020;11.720;2024-01-11T05:57:25;-5.60;99.90
7648;DHT22;3866;48.020;11.720;2024-01-11T05:59:52;-5.70;99.90
7648;DHT22;3866;48.020;11.720;2024-01-11T06:02:20;-5.70;99.90
7648;DHT22;3866;48.020;11.720;2024-01-11T06:04:48;-5.60;99.90
7648;DHT22;3866;48.020;11.720;2024-01-11T06:07:17;-5.50;99.90
7648;DHT22;3866;48.020;11.720;2024-01-11T06:09:46;-5.50;99.90
7648;DHT22;3866;48.020;11.720;2024-01-11T06:12:13;-5.40;99.90
7648;DHT22;3866;48.020;11.720;2024-01-11T06:14:39;-5.30;99.90
7648;DHT22;3866;48.020;11.720;2024-01-11T06:17:06;-5.50;99.90
7648;DHT22;3866;48.020;11.720;2024-01-11T06:19:36;-5.60;99.90
7648;DHT22;3866;48.020;11.720;2024-01-11T06:22:04;-5.50;99.90
7648;DHT22;3866;48.020;11.720;2024-01-11T06:24:31;-5.70;99.90
7648;DHT22;3866;48.020;11.720;2024-01-11T06:26:59;-5.50;99.90
7648;DHT22;3866;48.020;11.720;2024-01-11T06:29:26;-5.60;99.90
7648;DHT22;3866;48.020;11.720;2024-01-11T06:31:54;-5.60;99.90
7648;DHT22;3866;48.020;11.720;2024-01-11T06:34:23;-5.60;99.90
7648;DHT22;3866;48.020;11.720;2024-01-11T06:36:50;-5.60;99.90
7648;DHT22;3866;48.020;11.720;2024-01-11T06:39:22;-5.60;99.90
7648;DHT22;3866;48.020;11.720;2024-01-11T06:41:50;-5.60;99.90
7648;DHT22;3866;48.020;11.720;2024-01-11T06:44:19;-5.60;99.90
7648;DHT22;3866;48.020;11.720;2024-01-11T06:46:46;-5.40;99.90
7648;DHT22;3866;48.020;11.720;2024-01-11T06:49:16;-5.60;99.90
7648;DHT22;3866;48.020;11.720;2024-01-11T06:51:45;-5.50;99.90
7648;DHT22;3866;48.020;11.720;2024-01-11T06:54:13;-5.50;99.90
7648;DHT22;3866;48.020;11.720;2024-01-11T06:56:41;-5.50;99.90
7648;DHT22;3866;48.020;11.720;2024-01-11T06:59:09;-5.50;99.90
7648;DHT22;3866;48.020;11.720;2024-01-11T07:01:37;-5.50;99.90
7648;DHT22;3866;48.020;11.720;2024-01-11T07:04:19;-5.40;99.90
7648;DHT22;3866;48.020;11.720;2024-01-11T07:06:47;-5.50;99.90
7648;DHT22;3866;48.020;11.720;2024-01-11T07:09:15;-5.50;99.90
7648;DHT22;3866;48.020;11.720;2024-01-11T07:11:44;-5.30;99.90
7648;DHT22;3866;48.020;11.720;2024-01-11T07:14:12;-5.30;99.90
7648;DHT22;3866;48.020;11.720;2024-01-11T07:16:42;-5.40;99.90
7648;DHT22;3866;48.020;11.720;2024-01-11T07:19:10;-5.40;99.90
7648;DHT22;3866;48.020;11.720;2024-01-11T07:21:37;-5.70;99.90
7648;DHT22;3866;48.020;11.720;2024-01-11T07:24:06;-5.70;99.90
7648;DHT22;3866;48.020;11.720;2024-01-11T07:26:34;-5.70;99.90
7648;DHT22;3866;48.020;11.720;2024-01-11T07:29:02;-5.70;99.90
7648;DHT22;3866;48.020;11.720;2024-01-11T07:31:30;-5.60;99.90
7648;DHT22;3866;48.020;11.720;2024-01-11T07:33:59;-5.70;99.90
7648;DHT22;3866;48.020;11.720;2024-01-11T07:36:28;-5.70;99.90
7648;DHT22;3866;48.020;11.720;2024-01-11T07:38:56;-5.80;99.90
7648;DHT22;3866;48.020;11.720;2024-01-11T07:41:24;-5.80;99.90
7648;DHT22;3866;48.020;11.720;2024-01-11T07:43:52;-5.60;99.90
7648;DHT22;3866;48.020;11.720;2024-01-11T07:46:25;-5.60;99.90
7648;DHT22;3866;48.020;11.720;2024-01-11T07:48:55;-5.70;99.90
7648;DHT22;3866;48.020;11.720;2024-01-11T07:51:34;-5.90;99.90
7648;DHT22;3866;48.020;11.720;2024-01-11T07:54:01;-5.70;99.90
7648;DHT22;3866;48.020;11.720;2024-01-11T07:56:31;-5.80;99.90
7648;DHT22;3866;48.020;11.720;2024-01-11T07:58:59;-6.00;99.90
7648;DHT22;3866;48.020;11.720;2024-01-11T08:01:29;-6.00;99.90
7648;DHT22;3866;48.020;11.720;2024-01-11T08:03:57;-5.70;99.90
7648;DHT22;3866;48.020;11.720;2024-01-11T08:06:26;-5.70;99.90
7648;DHT22;3866;48.020;11.720;2024-01-11T08:08:55;-5.70;99.90
7648;DHT22;3866;48.020;11.720;2024-01-11T08:11:23;-5.90;99.90
7648;DHT22;3866;48.020;11.720;2024-01-11T08:13:51;-5.70;99.90
7648;DHT22;3866;48.020;11.720;2024-01-11T08:16:21;-5.60;99.90
7648;DHT22;3866;48.020;11.720;2024-01-11T08:18:49;-5.60;99.90
7648;DHT22;3866;48.020;11.720;2024-01-11T08:21:20;-5.70;99.90
7648;DHT22;3866;48.020;11.720;2024-01-11T08:23:47;-5.50;99.90
7648;DHT22;3866;48.020;11.720;2024-01-11T08:26:17;-5.70;99.90
7648;DHT22;3866;48.020;11.720;2024-01-11T08:28:46;-5.80;99.90
7648;DHT22;3866;48.020;11.720;2024-01-11T08:31:14;-5.90;99.90
7648;DHT22;3866;48.020;11.720;2024-01-11T08:33:44;-5.80;99.90
7648;DHT22;3866;48.020;11.720;2024-01-11T08:36:13;-5.80;99.90
7648;DHT22;3866;48.020;11.720;2024-01-11T08:38:41;-5.90;99.90
7648;DHT22;3866;48.020;11.720;2024-01-11T08:41:09;-5.80;99.90
7648;DHT22;3866;48.020;11.720;2024-01-11T08:43:39;-5.80;99.90
7648;DHT22;3866;48.020;11.720;2024-01-11T08:46:07;-5.80;99.90
7648;DHT22;3866;48.020;11.720;2024-01-11T08:48:35;-5.80;99.90
7648;DHT22;3866;48.020;11.720;2024-01-11T08:51:03;-5.70;99.90
7648;DHT22;3866;48.020;11.720;2024-01-11T08:53:31;-5.80;99.90
7648;DHT22;3866;48.020;11.720;2024-01-11T08:55:59;-5.80;99.90
7648;DHT22;3866;48.020;11.720;2024-01-11T08:58:27;-5.60;99.90
7648;DHT22;3866;48.020;11.720;2024-01-11T09:00:59;-5.40;99.90
7648;DHT22;3866;48.020;11.720;2024-01-11T09:03:27;-5.10;99.90
7648;DHT22;3866;48.020;11.720;2024-01-11T09:05:55;-5.20;99.90
7648;DHT22;3866;48.020;11.720;2024-01-11T09:08:24;-5.30;99.90
7648;DHT22;3866;48.020;11.720;2024-01-11T09:10:52;-5.30;99.90
7648;DHT22;3866;48.020;11.720;2024-01-11T09:13:23;-5.30;99.90
7648;DHT22;3866;48.020;11.720;2024-01-11T09:15:52;-5.00;99.90
7648;DHT22;3866;48.020;11.720;2024-01-11T09:18:22;-4.90;99.90
7648;DHT22;3866;48.020;11.720;2024-01-11T09:20:50;-4.90;99.90
7648;DHT22;3866;48.020;11.720;2024-01-11T09:23:18;-4.90;99.90
7648;DHT22;3866;48.020;11.720;2024-01-11T09:25:46;-5.00;99.90
7648;DHT22;3866;48.020;11.720;2024-01-11T09:28:14;-4.80;99.90
7648;DHT22;3866;48.020;11.720;2024-01-11T09:30:41;-4.80;99.90
7648;DHT22;3866;48.020;11.720;2024-01-11T09:33:09;-4.70;99.90
7648;DHT22;3866;48.020;11.720;2024-01-11T09:35:46;-4.60;99.90
7648;DHT22;3866;48.020;11.720;2024-01-11T09:38:16;-4.90;99.90
7648;DHT22;3866;48.020;11.720;2024-01-11T09:40:45;-4.80;99.90
7648;DHT22;3866;48.020;11.720;2024-01-11T09:43:13;-4.70;99.90
7648;DHT22;3866;48.020;11.720;2024-01-11T09:45:44;-4.70;99.90
7648;DHT22;3866;48.020;11.720;2024-01-11T09:48:12;-4.60;99.90
7648;DHT22;3866;48.020;11.720;2024-01-11T09:50:44;-4.60;99.90
7648;DHT22;3866;48.020;11.720;2024-01-11T09:53:12;-4.60;99.90
7648;DHT22;3866;48.020;11.720;2024-01-11T09:55:40;-4.60;99.90
7648;DHT22;3866;48.020;11.720;2024-01-11T09:58:10;-4.60;99.90
7648;DHT22;3866;48.020;11.720;2024-01-11T10:00:40;-4.60;99.90
7648;DHT22;3866;48.020;11.720;2024-01-11T10:03:08;-4.80;99.90
7648;DHT22;3866;48.020;11.720;2024-01-11T10:05:37;-4.70;99.90
7648;DHT22;3866;48.020;11.720;2024-01-11T10:08:07;-4.60;99.90
7648;DHT22;3866;48.020;11.720;2024-01-11T10:10:36;-4.50;99.90
7648;DHT22;3866;48.020;11.720;2024-01-11T10:13:05;-4.70;99.90
7648;DHT22;3866;48.020;11.720;2024-01-11T10:15:33;-4.80;99.90
7648;DHT22;3866;48.020;11.720;2024-01-11T10:18:01;-5.10;99.90
7648;DHT22;3866;48.020;11.720;2024-01-11T10:20:29;-4.90;99.90
7648;DHT22;3866;48.020;11.720;2024-01-11T10:22:58;-5.00;99.90
7648;DHT22;3866;48.020;11.720;2024-01-11T10:25:29;-5.10;99.90
7648;DHT22;3866;48.020;11.720;2024-01-11T10:27:58;-5.10;99.90
7648;DHT22;3866;48.020;11.720;2024-01-11T10:30:26;-5.10;99.90
7648;DHT22;3866;48.020;11.720;2024-01-11T10:32:57;-4.90;99.90
7648;DHT22;3866;48.020;11.720;2024-01-11T10:35:25;-4.90;99.90
7648;DHT22;3866;48.020;11.720;2024-01-11T10:37:55;-5.10;99.90
7648;DHT22;3866;48.020;11.720;2024-01-11T10:40:25;-4.70;99.90
7648;DHT22;3866;48.020;11.720;2024-01-11T10:42:57;-5.00;99.90
7648;DHT22;3866;48.020;11.720;2024-01-11T10:45:27;-4.70;99.90
7648;DHT22;3866;48.020;11.720;2024-01-11T10:47:55;-4.50;99.90
7648;DHT22;3866;48.020;11.720;2024-01-11T10:50:25;-4.90;99.90
7648;DHT22;3866;48.020;11.720;2024-01-11T10:53:03;-5.00;99.90
7648;DHT22;3866;48.020;11.720;2024-01-11T10:55:32;-5.00;99.90
7648;DHT22;3866;48.020;11.720;2024-01-11T10:58:02;-4.70;99.90
7648;DHT22;3866;48.020;11.720;2024-01-11T11:00:29;-4.50;99.90
7648;DHT22;3866;48.020;11.720;2024-01-11T11:02:58;-4.70;99.90
7648;DHT22;3866;48.020;11.720;2024-01-11T11:05:27;-4.50;99.90
7648;DHT22;3866;48.020;11.720;2024-01-11T11:07:55;-4.60;99.90
7648;DHT22;3866;48.020;11.720;2024-01-11T11:10:24;-4.50;99.90
7648;DHT22;3866;48.020;11.720;2024-01-11T11:12:54;-4.10;99.90
7648;DHT22;3866;48.020;11.720;2024-01-11T11:15:26;-4.10;99.90
7648;DHT22;3866;48.020;11.720;2024-01-11T11:17:53;-4.00;99.90
7648;DHT22;3866;48.020;11.720;2024-01-11T11:20:21;-4.40;99.90
7648;DHT22;3866;48.020;11.720;2024-01-11T11:22:56;-4.20;99.90
7648;DHT22;3866;48.020;11.720;2024-01-11T11:25:30;-4.00;99.90
7648;DHT22;3866;48.020;11.720;2024-01-11T11:27:57;-3.90;99.90
7648;DHT22;3866;48.020;11.720;2024-01-11T11:30:28;-3.80;99.90
7648;DHT22;3866;48.020;11.720;2024-01-11T11:32:55;-4.10;99.90
7648;DHT22;3866;48.020;11.720;2024-01-11T11:35:23;-4.00;99.90
7648;DHT22;3866;48.020;11.720;2024-01-11T11:37:55;-3.80;99.90
7648;DHT22;3866;48.020;11.720;2024-01-11T11:40:32;-3.70;99.90
7648;DHT22;3866;48.020;11.720;2024-01-11T11:43:04;-3.80;99.90
7648;DHT22;3866;48.020;11.720;2024-01-11T11:45:34;-3.90;99.90
7648;DHT22;3866;48.020;11.720;2024-01-11T11:51:13;-4.00;99.90
7648;DHT22;3866;48.020;11.720;2024-01-11T11:53:42;-3.90;99.90
7648;DHT22;3866;48.020;11.720;2024-01-11T11:56:11;-3.90;99.90
7648;DHT22;3866;48.020;11.720;2024-01-11T11:58:41;-3.70;99.90
7648;DHT22;3866;48.020;11.720;2024-01-11T12:01:12;-3.80;99.90
7648;DHT22;3866;48.020;11.720;2024-01-11T12:03:43;-3.70;99.90
7648;DHT22;3866;48.020;11.720;2024-01-11T12:06:15;-3.80;99.90
7648;DHT22;3866;48.020;11.720;2024-01-11T12:08:44;-3.50;99.90
7648;DHT22;3866;48.020;11.720;2024-01-11T12:11:18;-3.40;99.90
7648;DHT22;3866;48.020;11.720;2024-01-11T12:13:47;-4.00;99.90
7648;DHT22;3866;48.020;11.720;2024-01-11T12:16:17;-3.90;99.90
7648;DHT22;3866;48.020;11.720;2024-01-11T12:18:45;-3.60;99.90
7648;DHT22;3866;48.020;11.720;2024-01-11T12:21:14;-3.70;99.90
7648;DHT22;3866;48.020;11.720;2024-01-11T12:23:43;-4.10;99.90
7648;DHT22;3866;48.020;11.720;2024-01-11T12:26:11;-3.90;99.90
7648;DHT22;3866;48.020;11.720;2024-01-11T12:28:40;-3.70;99.90
7648;DHT22;3866;48.020;11.720;2024-01-11T12:31:08;-3.70;99.90
7648;DHT22;3866;48.020;11.720;2024-01-11T12:33:37;-3.80;99.90
7648;DHT22;3866;48.020;11.720;2024-01-11T12:36:08;-3.90;99.90
7648;DHT22;3866;48.020;11.720;2024-01-11T12:38:35;-3.80;99.90
7648;DHT22;3866;48.020;11.720;2024-01-11T12:41:03;-3.80;99.90
7648;DHT22;3866;48.020;11.720;2024-01-11T12:43:30;-4.50;99.90
7648;DHT22;3866;48.020;11.720;2024-01-11T12:45:57;-4.50;99.90
7648;DHT22;3866;48.020;11.720;2024-01-11T12:48:25;-4.10;99.90
7648;DHT22;3866;48.020;11.720;2024-01-11T12:50:53;-4.00;99.90
7648;DHT22;3866;48.020;11.720;2024-01-11T12:53:20;-4.10;99.90
7648;DHT22;3866;48.020;11.720;2024-01-11T12:55:48;-3.90;99.90
7648;DHT22;3866;48.020;11.720;2024-01-11T12:58:19;-3.60;99.90
7648;DHT22;3866;48.020;11.720;2024-01-11T13:00:47;-3.70;99.90
7648;DHT22;3866;48.020;11.720;2024-01-11T13:03:15;-3.80;99.90
7648;DHT22;3866;48.020;11.720;2024-01-11T13:05:42;-3.90;99.90
7648;DHT22;3866;48.020;11.720;2024-01-11T13:08:10;-4.10;99.90
7648;DHT22;3866;48.020;11.720;2024-01-11T13:10:37;-3.70;99.90
7648;DHT22;3866;48.020;11.720;2024-01-11T13:13:05;-3.70;99.90
7648;DHT22;3866;48.020;11.720;2024-01-11T13:15:34;-3.70;99.90
7648;DHT22;3866;48.020;11.720;2024-01-11T13:18:02;-3.60;99.90
7648;DHT22;3866;48.020;11.720;2024-01-11T13:20:29;-3.90;99.90
7648;DHT22;3866;48.020;11.720;2024-01-11T13:23:12;-3.90;99.90
7648;DHT22;3866;48.020;11.720;2024-01-11T13:25:40;-4.10;99.90
7648;DHT22;3866;48.020;11.720;2024-01-11T13:28:07;-4.10;99.90
7648;DHT22;3866;48.020;11.720;2024-01-11T13:30:37;-4.30;99.90
7648;DHT22;3866;48.020;11.720;2024-01-11T13:33:04;-4.30;99.90
7648;DHT22;3866;48.020;11.720;2024-01-11T13:35:33;-4.30;99.90
7648;DHT22;3866;48.020;11.720;2024-01-11T13:38:01;-4.20;99.90
7648;DHT22;3866;48.020;11.720;2024-01-11T13:40:29;-4.40;99.90
7648;DHT22;3866;48.020;11.720;2024-01-11T13:42:57;-4.50;99.90
7648;DHT22;3866;48.020;11.720;2024-01-11T13:45:24;-4.50;99.90
7648;DHT22;3866;48.020;11.720;2024-01-11T13:47:52;-4.50;99.90
7648;DHT22;3866;48.020;11.720;2024-01-11T13:50:21;-4.30;99.90
7648;DHT22;3866;48.020;11.720;2024-01-11T13:52:49;-4.20;99.90
7648;DHT22;3866;48.020;11.720;2024-01-11T13:55:17;-4.10;99.90
7648;DHT22;3866;48.020;11.720;2024-01-11T13:57:46;-4.10;99.90
7648;DHT22;3866;48.020;11.720;2024-01-11T14:00:14;-3.90;99.90
7648;DHT22;3866;48.020;11.720;2024-01-11T14:02:43;-3.90;99.90
7648;DHT22;3866;48.020;11.720;2024-01-11T14:05:11;-4.10;99.90
7648;DHT22;3866;48.020;11.720;2024-01-11T14:07:44;-4.20;99.90
7648;DHT22;3866;48.020;11.720;2024-01-11T14:10:12;-4.20;99.90
7648;DHT22;3866;48.020;11.720;2024-01-11T14:12:39;-4.20;99.90
7648;DHT22;3866;48.020;11.720;2024-01-11T14:15:09;-4.10;99.90
7648;DHT22;3866;48.020;11.720;2024-01-11T14:17:38;-3.90;99.90
7648;DHT22;3866;48.020;11.720;2024-01-11T14:20:06;-4.00;99.90
7648;DHT22;3866;48.020;11.720;2024-01-11T14:22:37;-4.30;99.90
7648;DHT22;3866;48.020;11.720;2024-01-11T14:25:05;-4.30;99.90
7648;DHT22;3866;48.020;11.720;2024-01-11T14:27:32;-4.10;99.90
7648;DHT22;3866;48.020;11.720;2024-01-11T14:29:59;-4.10;99.90
7648;DHT22;3866;48.020;11.720;2024-01-11T14:32:28;-3.90;99.90
7648;DHT22;3866;48.020;11.720;2024-01-11T14:34:55;-3.90;99.90
7648;DHT22;3866;48.020;11.720;2024-01-11T14:37:22;-3.90;99.90
7648;DHT22;3866;48.020;11.720;2024-01-11T14:39:50;-4.00;99.90
7648;DHT22;3866;48.020;11.720;2024-01-11T14:42:17;-4.10;99.90
7648;DHT22;3866;48.020;11.720;2024-01-11T14:44:44;-4.00;99.90
7648;DHT22;3866;48.020;11.720;2024-01-11T14:47:11;-4.00;99.90
7648;DHT22;3866;48.020;11.720;2024-01-11T14:49:40;-4.20;99.90
7648;DHT22;3866;48.020;11.720;2024-01-11T14:52:07;-4.20;99.90
7648;DHT22;3866;48.020;11.720;2024-01-11T14:54:34;-3.90;99.90
7648;DHT22;3866;48.020;11.720;2024-01-11T14:57:01;-4.10;99.90
7648;DHT22;3866;48.020;11.720;2024-01-11T14:59:30;-4.20;99.90
7648;DHT22;3866;48.020;11.720;2024-01-11T15:01:57;-4.10;99.90
7648;DHT22;3866;48.020;11.720;2024-01-11T15:04:25;-4.20;99.90
7648;DHT22;3866;48.020;11.720;2024-01-11T15:06:53;-4.50;99.90
7648;DHT22;3866;48.020;11.720;2024-01-11T15:09:20;-4.50;99.90
7648;DHT22;3866;48.020;11.720;2024-01-11T15:11:47;-4.40;99.90
7648;DHT22;3866;48.020;11.720;2024-01-11T15:14:16;-4.30;99.90
7648;DHT22;3866;48.020;11.720;2024-01-11T15:16:43;-4.40;99.90
7648;DHT22;3866;48.020;11.720;2024-01-11T15:19:11;-4.40;99.90
7648;DHT22;3866;48.020;11.720;2024-01-11T15:21:39;-4.20;99.90
7648;DHT22;3866;48.020;11.720;2024-01-11T15:24:07;-4.20;99.90
7648;DHT22;3866;48.020;11.720;2024-01-11T15:26:34;-4.30;99.90
7648;DHT22;3866;48.020;11.720;2024-01-11T15:29:01;-4.50;99.90
7648;DHT22;3866;48.020;11.720;2024-01-11T15:31:29;-4.50;99.90
7648;DHT22;3866;48.020;11.720;2024-01-11T15:33:56;-4.40;99.90
7648;DHT22;3866;48.020;11.720;2024-01-11T15:36:23;-4.30;99.90
7648;DHT22;3866;48.020;11.720;2024-01-11T15:38:52;-4.40;99.90
7648;DHT22;3866;48.020;11.720;2024-01-11T15:41:21;-4.50;99.90
7648;DHT22;3866;48.020;11.720;2024-01-11T15:43:48;-4.60;99.90
7648;DHT22;3866;48.020;11.720;2024-01-11T15:46:16;-4.50;99.90
7648;DHT22;3866;48.020;11.720;2024-01-11T15:48:43;-4.40;99.90
7648;DHT22;3866;48.020;11.720;2024-01-11T15:51:10;-4.40;99.90
7648;DHT22;3866;48.020;11.720;2024-01-11T15:53:37;-4.50;99.90
7648;DHT22;3866;48.020;11.720;2024-01-11T15:56:05;-4.60;99.90